Time;durP1;ratioP1;P1;durP2;ratioP2;P2;SDS_P1;SDS_P2;PMS_P1;PMS_P2;Temp;Humidity;BMP_temperature;BMP_pressure;BME280_temperature;BME280_humidity;BME280_pressure;Samples;Min_cycle;Max_cycle;Signal;HPM_P1;HPM_P2
2023/04/27 00:01:43;;;;;;;8.80;4.03;;;;;;;;;;5011297;28;20038;-58
2023/04/27 00:04:09;;;;;;;7.07;4.30;;;;;;;;;;5014186;28;20045;-57
2023/04/27 00:06:35;;;;;;;7.03;3.80;;;;;;;;;;5013511;28;20064;-58
2023/04/27 00:09:02;;;;;;;7.55;4.03;;;;;;;;;;5028655;28;20034;-58
2023/04/27 00:11:28;;;;;;;6.38;4.18;;;;;;;;;;5012442;28;20650;-58
2023/04/27 00:13:54;;;;;;;6.47;3.42;;;;;;;;;;5011487;28;20268;-57
2023/04/27 00:16:20;;;;;;;7.57;4.25;;;;;;;;;;5003778;28;20926;-58
2023/04/27 00:18:46;;;;;;;6.15;3.95;;;;;;;;;;5004385;28;20077;-57
2023/04/27 00:21:12;;;;;;;5.60;3.42;;;;;;;;;;5008340;28;20496;-58
2023/04/27 00:23:38;;;;;;;6.43;3.80;;;;;;;;;;5022780;28;20046;-57
2023/04/27 00:26:05;;;;;;;6.90;3.85;;;;;;;;;;5007504;28;20038;-57
2023/04/27 00:28:31;;;;;;;7.82;4.55;;;;;;;;;;5008759;28;20081;-58
2023/04/27 00:30:57;;;;;;;6.03;3.75;;;;;;;;;;5007538;28;20080;-57
2023/04/27 00:33:23;;;;;;;9.85;4.43;;;;;;;;;;5007648;28;20042;-57
2023/04/27 00:35:49;;;;;;;10.40;4.50;;;;;;;;;;5005981;28;20049;-57
2023/04/27 00:38:15;;;;;;;9.20;4.40;;;;;;;;;;5004199;28;20049;-57
2023/04/27 00:40:41;;;;;;;6.28;3.63;;;;;;;;;;5003366;28;20046;-58
2023/04/27 00:43:07;;;;;;;8.15;4.13;;;;;;;;;;5006940;28;21302;-58
2023/04/27 00:45:37;;;;;;;8.27;4.93;;;;;;;;;;5007040;28;20609;-57
2023/04/27 00:48:03;;;;;;;11.18;4.03;;;;;;;;;;5005205;28;20125;-57
2023/04/27 00:50:29;;;;;;;8.50;3.72;;;;;;;;;;5008196;28;20049;-58
2023/04/27 00:52:56;;;;;;;10.15;4.10;;;;;;;;;;5006135;28;20308;-57
2023/04/27 00:55:25;;;;;;;6.40;4.43;;;;;;;;;;5007662;28;20514;-58
2023/04/27 00:57:51;;;;;;;9.98;4.68;;;;;;;;;;5002834;28;20046;-58
2023/04/27 01:00:17;;;;;;;7.53;3.83;;;;;;;;;;5002086;28;20041;-57
2023/04/27 01:02:43;;;;;;;7.38;4.85;;;;;;;;;;5002822;28;20647;-58
2023/04/27 01:05:09;;;;;;;10.45;4.13;;;;;;;;;;5001121;28;20048;-58
2023/04/27 01:07:39;;;;;;;9.90;5.32;;;;;;;;;;5002973;28;20068;-58
2023/04/27 01:10:06;;;;;;;7.20;4.80;;;;;;;;;;5002443;28;20053;-59
2023/04/27 01:12:32;;;;;;;9.00;4.03;;;;;;;;;;5002779;28;20088;-58
2023/04/27 01:14:58;;;;;;;6.70;3.75;;;;;;;;;;5000610;28;20471;-59
2023/04/27 01:17:25;;;;;;;14.23;7.43;;;;;;;;;;5003659;28;20092;-58
2023/04/27 01:19:54;;;;;;;7.55;4.80;;;;;;;;;;5003835;28;20142;-58
2023/04/27 01:22:20;;;;;;;9.60;3.97;;;;;;;;;;5003499;28;20126;-58
2023/04/27 01:24:46;;;;;;;9.05;4.93;;;;;;;;;;5002368;28;20049;-58
2023/04/27 01:27:12;;;;;;;11.55;6.05;;;;;;;;;;5002839;28;20507;-59
2023/04/27 01:29:39;;;;;;;7.00;5.00;;;;;;;;;;5003944;28;20124;-58
2023/04/27 01:32:05;;;;;;;12.77;5.35;;;;;;;;;;5002926;28;20070;-58
2023/04/27 01:34:32;;;;;;;9.15;4.97;;;;;;;;;;5005292;28;21322;-58
2023/04/27 01:36:58;;;;;;;9.85;5.47;;;;;;;;;;5004352;28;20104;-61
2023/04/27 01:39:24;;;;;;;8.10;5.07;;;;;;;;;;5003209;28;20329;-58
2023/04/27 01:41:50;;;;;;;11.68;4.72;;;;;;;;;;5003739;28;20542;-58
2023/04/27 01:44:16;;;;;;;10.18;5.05;;;;;;;;;;5004115;28;20073;-57
2023/04/27 01:46:43;;;;;;;8.50;4.80;;;;;;;;;;4997212;28;20532;-59
2023/04/27 01:49:09;;;;;;;7.60;4.70;;;;;;;;;;5003346;28;20599;-58
2023/04/27 01:51:35;;;;;;;6.82;4.32;;;;;;;;;;5000148;28;20060;-58
2023/04/27 01:54:01;;;;;;;10.65;6.20;;;;;;;;;;5030255;28;20045;-57
2023/04/27 01:56:27;;;;;;;7.93;5.50;;;;;;;;;;5001441;28;20070;-58
2023/04/27 01:58:53;;;;;;;10.50;4.85;;;;;;;;;;5001281;28;20555;-58
2023/04/27 02:01:19;;;;;;;8.50;5.38;;;;;;;;;;5001597;28;20049;-57
2023/04/27 02:03:45;;;;;;;9.10;5.63;;;;;;;;;;5002141;28;20049;-58
2023/04/27 02:06:12;;;;;;;12.52;5.50;;;;;;;;;;5001664;28;20046;-58
2023/04/27 02:08:38;;;;;;;12.15;5.63;;;;;;;;;;5001866;28;20038;-57
2023/04/27 02:11:04;;;;;;;8.38;4.80;;;;;;;;;;5000450;28;20638;-58
2023/04/27 02:13:30;;;;;;;10.45;5.03;;;;;;;;;;4996601;28;20042;-58
2023/04/27 02:15:56;;;;;;;9.68;5.60;;;;;;;;;;5001927;28;20180;-57
2023/04/27 02:18:23;;;;;;;7.57;4.80;;;;;;;;;;5002694;28;20088;-58
2023/04/27 02:20:49;;;;;;;8.07;4.82;;;;;;;;;;5003207;28;20046;-58
2023/04/27 02:23:15;;;;;;;12.18;7.50;;;;;;;;;;5003774;28;20053;-58
2023/04/27 02:25:45;;;;;;;11.13;6.00;;;;;;;;;;4998676;28;20046;-58
2023/04/27 02:28:11;;;;;;;15.73;6.40;;;;;;;;;;5002860;28;20044;-58
2023/04/27 02:30:38;;;;;;;9.30;5.80;;;;;;;;;;5001273;28;20050;-58
2023/04/27 02:33:04;;;;;;;8.68;4.75;;;;;;;;;;5001816;28;20160;-58
2023/04/27 02:35:32;;;;;;;9.98;5.75;;;;;;;;;;5004585;28;20975;-58
2023/04/27 02:37:58;;;;;;;13.75;7.00;;;;;;;;;;5003805;28;20050;-58
2023/04/27 02:40:24;;;;;;;9.57;5.07;;;;;;;;;;5002376;28;20038;-58
2023/04/27 02:42:50;;;;;;;8.35;5.25;;;;;;;;;;4998056;28;20051;-57
2023/04/27 02:45:16;;;;;;;10.80;5.82;;;;;;;;;;5000820;28;20053;-58
2023/04/27 02:47:42;;;;;;;12.90;5.25;;;;;;;;;;5003709;28;20537;-58
2023/04/27 02:50:09;;;;;;;11.55;6.22;;;;;;;;;;5005647;28;20045;-58
2023/04/27 02:52:35;;;;;;;11.70;6.93;;;;;;;;;;5002578;28;20188;-57
2023/04/27 02:55:01;;;;;;;12.90;4.75;;;;;;;;;;5002981;28;20535;-58
2023/04/27 02:57:28;;;;;;;9.82;6.20;;;;;;;;;;4999114;28;20710;-58
2023/04/27 02:59:54;;;;;;;8.60;5.72;;;;;;;;;;4999081;28;20050;-57
2023/04/27 03:02:20;;;;;;;12.68;6.63;;;;;;;;;;5002884;28;20595;-58
2023/04/27 03:04:46;;;;;;;9.60;5.82;;;;;;;;;;5002385;28;20038;-57
2023/04/27 03:07:12;;;;;;;10.00;5.65;;;;;;;;;;5001304;28;20038;-57
2023/04/27 03:09:38;;;;;;;10.32;6.00;;;;;;;;;;5001439;28;20046;-57
2023/04/27 03:12:04;;;;;;;11.98;5.22;;;;;;;;;;5001313;28;20042;-58
2023/04/27 03:14:30;;;;;;;13.57;6.75;;;;;;;;;;4999720;28;20058;-57
2023/04/27 03:16:56;;;;;;;11.38;6.75;;;;;;;;;;5001867;28;20504;-58
2023/04/27 03:19:23;;;;;;;12.68;6.40;;;;;;;;;;5000704;28;20042;-58
2023/04/27 03:21:49;;;;;;;8.63;5.85;;;;;;;;;;5001553;28;20050;-57
2023/04/27 03:24:16;;;;;;;10.70;6.25;;;;;;;;;;5001981;28;20101;-58
2023/04/27 03:26:42;;;;;;;10.25;6.55;;;;;;;;;;4996414;28;20049;-57
2023/04/27 03:29:08;;;;;;;13.40;5.32;;;;;;;;;;5004649;28;20046;-58
2023/04/27 03:31:34;;;;;;;6.80;5.32;;;;;;;;;;5005305;28;20580;-57
2023/04/27 03:34:01;;;;;;;9.40;5.65;;;;;;;;;;5004035;28;20041;-58
2023/04/27 03:36:27;;;;;;;10.02;5.75;;;;;;;;;;5007406;28;20045;-58
2023/04/27 03:38:53;;;;;;;11.10;5.40;;;;;;;;;;5002549;28;20042;-57
2023/04/27 03:41:20;;;;;;;9.07;5.10;;;;;;;;;;5004238;28;20041;-57
2023/04/27 03:43:46;;;;;;;8.70;5.15;;;;;;;;;;5018818;28;20066;-57
2023/04/27 03:46:12;;;;;;;10.10;6.88;;;;;;;;;;5001426;28;20791;-57
2023/04/27 03:48:38;;;;;;;9.30;5.15;;;;;;;;;;5002917;28;20496;-57
2023/04/27 03:51:05;;;;;;;7.78;4.70;;;;;;;;;;5002982;28;20046;-58
2023/04/27 03:53:31;;;;;;;8.75;5.47;;;;;;;;;;5033546;28;20550;-58
2023/04/27 03:55:57;;;;;;;8.32;5.80;;;;;;;;;;5006108;28;20048;-58
2023/04/27 03:58:23;;;;;;;8.52;5.07;;;;;;;;;;5008571;28;20070;-57
2023/04/27 04:00:50;;;;;;;9.82;6.18;;;;;;;;;;5008200;28;20053;-57
2023/04/27 04:03:16;;;;;;;8.80;6.38;;;;;;;;;;5010963;28;20040;-58
2023/04/27 04:05:42;;;;;;;9.45;6.40;;;;;;;;;;5009967;28;20119;-58
2023/04/27 04:08:08;;;;;;;15.82;8.07;;;;;;;;;;5026514;28;20057;-58
2023/04/27 04:10:34;;;;;;;11.45;7.18;;;;;;;;;;5013959;28;20041;-57
2023/04/27 04:13:00;;;;;;;13.50;7.85;;;;;;;;;;5011404;28;20149;-57
2023/04/27 04:15:26;;;;;;;12.40;7.35;;;;;;;;;;5009982;28;20042;-57
2023/04/27 04:17:52;;;;;;;12.38;6.88;;;;;;;;;;5010196;28;20042;-58
2023/04/27 04:20:18;;;;;;;11.40;6.60;;;;;;;;;;5011798;28;20050;-58
2023/04/27 04:22:44;;;;;;;11.65;6.90;;;;;;;;;;5011330;28;20602;-58
2023/04/27 04:25:11;;;;;;;12.25;5.43;;;;;;;;;;5012508;28;20041;-58
2023/04/27 04:27:37;;;;;;;10.55;5.45;;;;;;;;;;5008439;28;20054;-57
2023/04/27 04:30:05;;;;;;;11.77;5.93;;;;;;;;;;5011930;28;20173;-57
2023/04/27 04:32:32;;;;;;;10.95;6.85;;;;;;;;;;5010371;28;20042;-58
2023/04/27 04:35:00;;;;;;;12.25;6.05;;;;;;;;;;5012550;28;20184;-57
2023/04/27 04:37:26;;;;;;;14.30;8.27;;;;;;;;;;5010885;28;20877;-58
2023/04/27 04:39:52;;;;;;;11.07;5.22;;;;;;;;;;5010935;28;20093;-57
2023/04/27 04:42:19;;;;;;;8.35;5.55;;;;;;;;;;5011550;28;20046;-57
2023/04/27 04:44:45;;;;;;;12.77;5.25;;;;;;;;;;5004252;28;21371;-58
2023/04/27 04:47:12;;;;;;;11.73;5.53;;;;;;;;;;5011200;28;20481;-57
2023/04/27 04:49:38;;;;;;;15.10;7.80;;;;;;;;;;5011635;28;20561;-57
2023/04/27 04:52:04;;;;;;;13.45;6.47;;;;;;;;;;5013947;28;20056;-57
2023/04/27 04:54:30;;;;;;;10.90;6.35;;;;;;;;;;5013683;28;20625;-57
2023/04/27 04:56:59;;;;;;;14.35;6.70;;;;;;;;;;5041502;28;20057;-57
2023/04/27 04:59:25;;;;;;;11.05;6.82;;;;;;;;;;5009210;28;20599;-57
2023/04/27 05:01:54;;;;;;;12.50;5.82;;;;;;;;;;5007288;28;20050;-57
2023/04/27 05:04:20;;;;;;;13.05;5.50;;;;;;;;;;5007430;28;20171;-57
2023/04/27 05:06:46;;;;;;;15.98;5.35;;;;;;;;;;5010089;28;20206;-57
2023/04/27 05:09:12;;;;;;;8.32;6.15;;;;;;;;;;5037899;28;21292;-57
2023/04/27 05:11:38;;;;;;;10.52;5.95;;;;;;;;;;5011283;28;20484;-57
2023/04/27 05:14:04;;;;;;;10.80;8.27;;;;;;;;;;5006694;28;20042;-57
2023/04/27 05:16:30;;;;;;;9.57;5.43;;;;;;;;;;5009010;28;20096;-58
2023/04/27 05:18:57;;;;;;;10.52;5.95;;;;;;;;;;5007932;28;20587;-58
2023/04/27 05:21:23;;;;;;;12.23;5.93;;;;;;;;;;5008830;28;20102;-58
2023/04/27 05:23:49;;;;;;;10.43;5.65;;;;;;;;;;5008027;28;20053;-57
2023/04/27 05:26:16;;;;;;;10.40;5.45;;;;;;;;;;5008586;28;20042;-58
2023/04/27 05:28:42;;;;;;;12.00;4.80;;;;;;;;;;5011763;28;20070;-57
2023/04/27 05:31:08;;;;;;;9.07;5.70;;;;;;;;;;5010421;28;20042;-59
2023/04/27 05:33:34;;;;;;;11.07;5.70;;;;;;;;;;5012216;28;20038;-59
2023/04/27 05:36:00;;;;;;;9.20;5.95;;;;;;;;;;5008839;28;20507;-59
2023/04/27 05:38:26;;;;;;;10.93;5.53;;;;;;;;;;5008546;28;20046;-59
2023/04/27 05:40:56;;;;;;;14.02;5.53;;;;;;;;;;5038772;28;20034;-59
2023/04/27 05:43:23;;;;;;;9.65;5.32;;;;;;;;;;5009110;28;20130;-59
2023/04/27 05:45:49;;;;;;;9.68;5.55;;;;;;;;;;5010850;28;20117;-60
2023/04/27 05:48:15;;;;;;;16.88;5.82;;;;;;;;;;5007010;28;20113;-59
2023/04/27 05:50:41;;;;;;;8.98;4.97;;;;;;;;;;5007817;28;20306;-59
2023/04/27 05:53:07;;;;;;;11.20;6.80;;;;;;;;;;5010952;28;20298;-59
2023/04/27 05:55:34;;;;;;;9.15;6.28;;;;;;;;;;5009481;28;20042;-59
2023/04/27 05:58:00;;;;;;;8.15;5.53;;;;;;;;;;5008237;28;20072;-59
2023/04/27 06:00:27;;;;;;;8.75;6.07;;;;;;;;;;5010914;28;20094;-59
2023/04/27 06:02:53;;;;;;;8.93;4.97;;;;;;;;;;5010540;28;20120;-59
2023/04/27 06:05:20;;;;;;;10.18;5.25;;;;;;;;;;5009852;28;20065;-59
2023/04/27 06:07:46;;;;;;;9.45;4.97;;;;;;;;;;5009794;28;20525;-60
2023/04/27 06:10:12;;;;;;;14.10;5.18;;;;;;;;;;5007535;28;20042;-60
2023/04/27 06:12:38;;;;;;;10.35;5.07;;;;;;;;;;5010575;28;20413;-60
2023/04/27 06:15:07;;;;;;;27.55;5.97;;;;;;;;;;5011475;28;20077;-60
2023/04/27 06:17:42;;;;;;;7.93;4.68;;;;;;;;;;5010768;28;20046;-60
2023/04/27 06:20:09;;;;;;;7.85;4.85;;;;;;;;;;5006251;28;20042;-60
2023/04/27 06:22:38;;;;;;;9.13;5.25;;;;;;;;;;5011786;28;20046;-60
2023/04/27 06:25:05;;;;;;;10.25;6.05;;;;;;;;;;5012033;28;20049;-60
2023/04/27 06:27:31;;;;;;;7.28;4.80;;;;;;;;;;5012136;28;20035;-60
2023/04/27 06:29:58;;;;;;;8.70;4.68;;;;;;;;;;5011619;28;20469;-60
2023/04/27 06:32:24;;;;;;;8.63;4.45;;;;;;;;;;5007385;28;20050;-60
2023/04/27 06:34:50;;;;;;;7.45;5.00;;;;;;;;;;5011725;28;20042;-60
2023/04/27 06:37:17;;;;;;;8.00;4.38;;;;;;;;;;5005955;28;20180;-60
2023/04/27 06:39:43;;;;;;;7.72;4.75;;;;;;;;;;5006734;28;20046;-60
2023/04/27 06:42:10;;;;;;;7.35;5.03;;;;;;;;;;5009501;28;20046;-60
2023/04/27 06:44:36;;;;;;;7.40;4.60;;;;;;;;;;5012607;28;20537;-60
2023/04/27 06:47:02;;;;;;;9.05;4.85;;;;;;;;;;5011537;28;20042;-60
2023/04/27 06:49:28;;;;;;;9.63;4.80;;;;;;;;;;5012228;28;20042;-60
2023/04/27 06:51:54;;;;;;;9.35;5.60;;;;;;;;;;5011878;28;20050;-60
2023/04/27 06:54:20;;;;;;;7.60;4.32;;;;;;;;;;5014206;28;20128;-60
2023/04/27 06:56:46;;;;;;;8.15;4.60;;;;;;;;;;5011266;28;20543;-60
2023/04/27 06:59:12;;;;;;;9.50;5.32;;;;;;;;;;5013674;28;20477;-60
2023/04/27 07:01:38;;;;;;;7.47;4.85;;;;;;;;;;5012761;28;20120;-60
2023/04/27 07:04:07;;;;;;;8.27;4.30;;;;;;;;;;5017397;28;20128;-60
2023/04/27 07:06:33;;;;;;;7.55;4.53;;;;;;;;;;5017145;28;20042;-60
2023/04/27 07:08:59;;;;;;;8.18;3.78;;;;;;;;;;5015796;28;20045;-60
2023/04/27 07:11:25;;;;;;;9.57;5.07;;;;;;;;;;5016932;28;20578;-60
2023/04/27 07:13:52;;;;;;;7.47;4.18;;;;;;;;;;5015142;28;20765;-60
2023/04/27 07:16:18;;;;;;;8.65;4.57;;;;;;;;;;5016388;28;20535;-60
2023/04/27 07:18:45;;;;;;;8.15;3.90;;;;;;;;;;5016717;28;20034;-60
2023/04/27 07:21:11;;;;;;;7.85;4.38;;;;;;;;;;5016669;28;20046;-60
2023/04/27 07:23:38;;;;;;;6.05;3.70;;;;;;;;;;5016412;28;20045;-60
2023/04/27 07:26:06;;;;;;;5.70;4.28;;;;;;;;;;5015070;28;20038;-60
2023/04/27 07:28:34;;;;;;;8.20;4.53;;;;;;;;;;5032728;28;20049;-60
2023/04/27 07:31:00;;;;;;;7.40;3.80;;;;;;;;;;5006714;28;20064;-60
2023/04/27 07:33:26;;;;;;;8.73;5.50;;;;;;;;;;5008283;28;20053;-60
2023/04/27 07:35:53;;;;;;;6.40;3.83;;;;;;;;;;5008024;28;20044;-60
2023/04/27 07:38:19;;;;;;;9.80;5.47;;;;;;;;;;5016027;28;20049;-60
2023/04/27 07:40:46;;;;;;;6.00;4.18;;;;;;;;;;5015764;28;20037;-59
2023/04/27 07:43:12;;;;;;;7.57;4.78;;;;;;;;;;5016217;28;20069;-60
2023/04/27 07:45:40;;;;;;;7.32;4.40;;;;;;;;;;5016819;28;20169;-60
2023/04/27 07:48:06;;;;;;;9.32;5.00;;;;;;;;;;5016459;28;20042;-60
2023/04/27 07:50:32;;;;;;;8.88;4.57;;;;;;;;;;5016597;28;20042;-60
2023/04/27 07:52:59;;;;;;;9.95;5.68;;;;;;;;;;5016406;28;20046;-60
2023/04/27 07:55:25;;;;;;;9.02;5.03;;;;;;;;;;5016523;28;20766;-60
2023/04/27 07:57:55;;;;;;;7.43;5.03;;;;;;;;;;5016246;28;20459;-60
2023/04/27 08:00:22;;;;;;;8.55;5.43;;;;;;;;;;5015483;28;20153;-60
2023/04/27 08:02:48;;;;;;;11.70;5.35;;;;;;;;;;5016789;28;20164;-60
2023/04/27 08:05:14;;;;;;;13.73;6.57;;;;;;;;;;5015718;28;20153;-60
2023/04/27 08:07:40;;;;;;;8.27;4.70;;;;;;;;;;5016400;28;20129;-60
2023/04/27 08:10:07;;;;;;;8.52;4.22;;;;;;;;;;5015796;28;20190;-60
2023/04/27 08:12:33;;;;;;;7.93;5.10;;;;;;;;;;5014719;28;20097;-60
2023/04/27 08:14:59;;;;;;;9.52;5.15;;;;;;;;;;5014931;28;20361;-60
2023/04/27 08:17:26;;;;;;;8.13;5.28;;;;;;;;;;5016293;28;20454;-60
2023/04/27 08:19:52;;;;;;;10.20;5.65;;;;;;;;;;5015460;28;20527;-60
2023/04/27 08:22:18;;;;;;;9.05;4.05;;;;;;;;;;5015171;28;20056;-60
2023/04/27 08:24:44;;;;;;;9.38;4.20;;;;;;;;;;5016178;28;20042;-60
2023/04/27 08:27:10;;;;;;;8.98;4.60;;;;;;;;;;5015090;28;20042;-58
2023/04/27 08:29:36;;;;;;;6.88;4.82;;;;;;;;;;5015518;28;20046;-57
2023/04/27 08:32:03;;;;;;;6.22;4.30;;;;;;;;;;5008302;28;20267;-57
2023/04/27 08:34:29;;;;;;;11.10;4.18;;;;;;;;;;5014740;28;20550;-58
2023/04/27 08:36:55;;;;;;;5.53;3.65;;;;;;;;;;5015046;28;20045;-58
2023/04/27 08:39:23;;;;;;;7.85;4.65;;;;;;;;;;5014180;28;20288;-57
2023/04/27 08:41:49;;;;;;;5.97;3.70;;;;;;;;;;5014412;28;20050;-58
2023/04/27 08:44:15;;;;;;;6.20;3.33;;;;;;;;;;5014491;28;20054;-57
2023/04/27 08:46:41;;;;;;;10.02;4.57;;;;;;;;;;5015046;28;20125;-58
2023/04/27 08:49:08;;;;;;;7.13;3.92;;;;;;;;;;5014494;28;20042;-57
2023/04/27 08:51:34;;;;;;;6.38;3.92;;;;;;;;;;5014764;28;20080;-58
2023/04/27 08:54:00;;;;;;;9.43;3.67;;;;;;;;;;5014884;28;20042;-58
2023/04/27 08:56:27;;;;;;;7.43;3.60;;;;;;;;;;5014856;28;20038;-58
2023/04/27 08:58:55;;;;;;;6.85;4.40;;;;;;;;;;5014785;28;20045;-57
2023/04/27 09:01:21;;;;;;;8.80;5.10;;;;;;;;;;5014035;28;20524;-57
2023/04/27 09:03:47;;;;;;;6.07;3.33;;;;;;;;;;5014068;28;20809;-57
2023/04/27 09:06:14;;;;;;;6.60;3.33;;;;;;;;;;5015141;28;20041;-57
2023/04/27 09:08:47;;;;;;;6.50;3.85;;;;;;;;;;5014962;28;20440;-58
2023/04/27 09:11:14;;;;;;;6.40;4.13;;;;;;;;;;5014555;28;20050;-58
2023/04/27 09:13:41;;;;;;;8.45;4.38;;;;;;;;;;5022139;28;20063;-58
2023/04/27 09:16:07;;;;;;;7.53;3.60;;;;;;;;;;5014258;28;20520;-58
2023/04/27 09:18:36;;;;;;;8.65;4.53;;;;;;;;;;5014502;28;21830;-58
2023/04/27 09:21:03;;;;;;;5.00;3.25;;;;;;;;;;5013194;28;20467;-57
2023/04/27 09:23:30;;;;;;;6.50;3.58;;;;;;;;;;5014107;28;20883;-58
2023/04/27 09:25:57;;;;;;;5.72;3.55;;;;;;;;;;5013434;28;20033;-58
2023/04/27 09:28:27;;;;;;;5.38;3.55;;;;;;;;;;5015418;28;20970;-58
2023/04/27 09:30:54;;;;;;;5.28;4.03;;;;;;;;;;5013609;28;20042;-58
2023/04/27 09:33:24;;;;;;;8.55;3.92;;;;;;;;;;5014892;28;20129;-58
2023/04/27 09:35:50;;;;;;;5.93;4.18;;;;;;;;;;5012032;28;20137;-57
2023/04/27 09:38:21;;;;;;;10.52;3.72;;;;;;;;;;5007176;28;20048;-58
2023/04/27 09:40:47;;;;;;;5.88;2.67;;;;;;;;;;5013382;28;20125;-58
2023/04/27 09:43:13;;;;;;;10.65;3.95;;;;;;;;;;5015558;28;20563;-58
2023/04/27 09:45:39;;;;;;;6.00;3.30;;;;;;;;;;5014511;28;20166;-58
2023/04/27 09:48:06;;;;;;;9.30;3.85;;;;;;;;;;5014152;28;20042;-58
2023/04/27 09:50:36;;;;;;;5.60;4.13;;;;;;;;;;5013650;28;20549;-58
2023/04/27 09:53:02;;;;;;;5.43;3.00;;;;;;;;;;5014833;28;20046;-58
2023/04/27 09:55:55;;;;;;;5.30;3.08;;;;;;;;;;5013541;28;20053;-58
2023/04/27 09:58:21;;;;;;;5.05;3.53;;;;;;;;;;5014740;28;20042;-58
2023/04/27 10:00:56;;;;;;;4.38;2.58;;;;;;;;;;5013896;28;20587;-58
2023/04/27 10:03:26;;;;;;;4.32;2.40;;;;;;;;;;5014439;28;20495;-58
2023/04/27 10:06:21;;;;;;;8.07;3.30;;;;;;;;;;5013916;28;20038;-58
2023/04/27 10:08:50;;;;;;;4.93;2.65;;;;;;;;;;5014833;28;20042;-58
2023/04/27 10:11:18;;;;;;;5.28;3.15;;;;;;;;;;5012974;28;20069;-58
2023/04/27 10:13:51;;;;;;;5.65;3.88;;;;;;;;;;5014270;28;20049;-58
2023/04/27 10:16:17;;;;;;;7.32;2.92;;;;;;;;;;5013251;28;20279;-58
2023/04/27 10:18:51;;;;;;;6.45;3.53;;;;;;;;;;5015214;28;20046;-58
2023/04/27 10:21:17;;;;;;;5.18;3.55;;;;;;;;;;5029214;28;20135;-58
2023/04/27 10:23:50;;;;;;;4.95;3.25;;;;;;;;;;5015194;28;20125;-58
2023/04/27 10:26:26;;;;;;;7.18;3.40;;;;;;;;;;5013773;28;21257;-58
2023/04/27 10:28:56;;;;;;;5.53;3.22;;;;;;;;;;5014159;28;20045;-58
2023/04/27 10:31:29;;;;;;;5.28;3.20;;;;;;;;;;5013091;28;20136;-58
2023/04/27 10:34:08;;;;;;;3.58;2.78;;;;;;;;;;5013527;28;20049;-58
2023/04/27 10:36:43;;;;;;;4.07;3.25;;;;;;;;;;5015428;28;20123;-58
2023/04/27 10:39:16;;;;;;;4.85;3.17;;;;;;;;;;5016602;28;20070;-58
2023/04/27 10:42:08;;;;;;;3.38;2.60;;;;;;;;;;5017190;28;20108;-58
2023/04/27 10:44:34;;;;;;;;;;;;;;;;;;5018044;28;20068;-58
2023/04/27 10:47:02;;;;;;;5.20;2.33;;;;;;;;;;5016379;28;20457;-58
2023/04/27 10:49:28;;;;;;;2.50;1.90;;;;;;;;;;5017731;28;20042;-58
2023/04/27 10:51:56;;;;;;;3.42;2.50;;;;;;;;;;5016451;28;20396;-58
2023/04/27 10:54:27;;;;;;;5.00;2.20;;;;;;;;;;5017786;28;20049;-58
2023/04/27 10:56:53;;;;;;;4.53;2.78;;;;;;;;;;5032943;28;20046;-58
2023/04/27 10:59:20;;;;;;;3.55;2.28;;;;;;;;;;5017003;28;20034;-58
2023/04/27 11:01:48;;;;;;;4.05;2.60;;;;;;;;;;5032188;28;20068;-59
2023/04/27 11:04:14;;;;;;;4.72;2.45;;;;;;;;;;5016997;28;20038;-58
2023/04/27 11:06:47;;;;;;;3.30;2.10;;;;;;;;;;5016521;28;20128;-58
2023/04/27 11:09:13;;;;;;;3.75;2.20;;;;;;;;;;5017132;28;20046;-58
2023/04/27 11:11:45;;;;;;;3.42;2.20;;;;;;;;;;5017049;28;20148;-58
2023/04/27 11:14:11;;;;;;;;;;;;;;;;;;5017588;28;20034;-58
2023/04/27 11:16:45;;;;;;;3.92;2.55;;;;;;;;;;5017964;28;20419;-58
2023/04/27 11:19:11;;;;;;;4.32;2.58;;;;;;;;;;5016817;28;20046;-58
2023/04/27 11:21:37;;;;;;;2.67;2.33;;;;;;;;;;5017545;28;20038;-58
2023/04/27 11:24:06;;;;;;;4.28;2.53;;;;;;;;;;5016329;28;20093;-58
2023/04/27 11:26:32;;;;;;;3.58;2.35;;;;;;;;;;5017523;28;20050;-58
2023/04/27 11:29:00;;;;;;;5.95;2.55;;;;;;;;;;5017270;28;20051;-57
2023/04/27 11:31:27;;;;;;;3.75;2.38;;;;;;;;;;5017810;28;20050;-58
2023/04/27 11:33:54;;;;;;;8.40;3.20;;;;;;;;;;5017217;28;20109;-57
2023/04/27 11:36:21;;;;;;;6.50;2.60;;;;;;;;;;5015782;28;20049;-57
2023/04/27 11:38:47;;;;;;;3.75;2.33;;;;;;;;;;5017866;28;20451;-58
2023/04/27 11:41:13;;;;;;;4.80;2.38;;;;;;;;;;5016407;28;20046;-57
2023/04/27 11:43:48;;;;;;;3.95;2.08;;;;;;;;;;5016301;28;20058;-58
2023/04/27 11:46:14;;;;;;;6.07;3.40;;;;;;;;;;5017442;28;20267;-57
2023/04/27 11:48:40;;;;;;;3.42;2.47;;;;;;;;;;5016625;28;20046;-58
2023/04/27 11:51:07;;;;;;;4.40;2.60;;;;;;;;;;5016448;28;20100;-58
2023/04/27 11:53:35;;;;;;;4.47;2.65;;;;;;;;;;5015707;28;20046;-57
2023/04/27 11:56:05;;;;;;;3.63;2.33;;;;;;;;;;5016007;28;20073;-57
2023/04/27 11:58:35;;;;;;;4.15;2.28;;;;;;;;;;5015723;28;20061;-57
2023/04/27 12:01:01;;;;;;;3.05;2.28;;;;;;;;;;5015712;28;20100;-57
2023/04/27 12:03:30;;;;;;;5.70;2.20;;;;;;;;;;5015736;28;20136;-58
2023/04/27 12:05:57;;;;;;;3.55;1.95;;;;;;;;;;5023459;28;20524;-58
2023/04/27 12:08:23;;;;;;;3.17;2.47;;;;;;;;;;5015927;28;20544;-57
2023/04/27 12:10:49;;;;;;;3.35;2.50;;;;;;;;;;5014763;28;20046;-58
2023/04/27 12:13:16;;;;;;;4.25;2.63;;;;;;;;;;5015490;28;20041;-58
2023/04/27 12:15:42;;;;;;;3.40;2.35;;;;;;;;;;5015925;28;20042;-58
2023/04/27 12:18:09;;;;;;;4.40;2.28;;;;;;;;;;5031532;28;20049;-58
2023/04/27 12:20:35;;;;;;;3.10;2.22;;;;;;;;;;5006811;28;20050;-58
2023/04/27 12:23:01;;;;;;;5.38;2.92;;;;;;;;;;5015505;28;20046;-58
2023/04/27 12:25:27;;;;;;;3.72;2.55;;;;;;;;;;5015598;28;20096;-58
2023/04/27 12:27:54;;;;;;;4.43;3.13;;;;;;;;;;5023285;28;20532;-58
2023/04/27 12:30:22;;;;;;;6.95;2.78;;;;;;;;;;5030774;28;20038;-58
2023/04/27 12:32:48;;;;;;;5.85;2.95;;;;;;;;;;5046200;28;20176;-58
2023/04/27 12:35:15;;;;;;;3.88;2.80;;;;;;;;;;5046216;28;20046;-58
2023/04/27 12:37:41;;;;;;;4.28;3.47;;;;;;;;;;5014746;28;20158;-58
2023/04/27 12:40:07;;;;;;;5.70;3.28;;;;;;;;;;5015659;28;20330;-58
2023/04/27 12:42:34;;;;;;;5.43;3.38;;;;;;;;;;5015365;28;20105;-58
2023/04/27 12:45:00;;;;;;;4.05;2.95;;;;;;;;;;5015511;28;20034;-57
2023/04/27 12:47:26;;;;;;;5.55;2.78;;;;;;;;;;5015153;28;20089;-58
2023/04/27 12:49:53;;;;;;;3.90;2.85;;;;;;;;;;5014817;28;20224;-58
2023/04/27 12:52:19;;;;;;;5.28;2.72;;;;;;;;;;5014274;28;20045;-58
2023/04/27 12:54:45;;;;;;;5.75;2.58;;;;;;;;;;5016195;28;20086;-58
2023/04/27 12:57:11;;;;;;;5.53;2.88;;;;;;;;;;5014540;28;20124;-58
2023/04/27 12:59:38;;;;;;;5.35;2.40;;;;;;;;;;5014781;28;20574;-58
2023/04/27 13:02:07;;;;;;;5.22;3.10;;;;;;;;;;5014772;28;20097;-58
2023/04/27 13:04:33;;;;;;;4.25;2.85;;;;;;;;;;5014681;28;20487;-58
2023/04/27 13:06:59;;;;;;;5.95;2.70;;;;;;;;;;5014658;28;20097;-57
2023/04/27 13:09:26;;;;;;;4.57;2.50;;;;;;;;;;5015363;28;20049;-57
2023/04/27 13:11:53;;;;;;;4.82;2.90;;;;;;;;;;5014716;28;21237;-58
2023/04/27 13:14:19;;;;;;;5.00;2.67;;;;;;;;;;5015881;28;20046;-58
2023/04/27 13:16:45;;;;;;;2.88;2.20;;;;;;;;;;5015232;28;20073;-58
2023/04/27 13:19:12;;;;;;;4.55;2.38;;;;;;;;;;5007958;28;20547;-58
2023/04/27 13:21:38;;;;;;;3.67;2.05;;;;;;;;;;5015914;28;20046;-58
2023/04/27 13:24:04;;;;;;;3.47;2.47;;;;;;;;;;5014439;28;20042;-58
2023/04/27 13:26:30;;;;;;;3.70;2.13;;;;;;;;;;5031167;28;20604;-58
2023/04/27 13:28:57;;;;;;;2.65;1.65;;;;;;;;;;5015456;28;20089;-58
2023/04/27 13:31:23;;;;;;;3.53;1.73;;;;;;;;;;5014264;28;20053;-57
2023/04/27 13:33:49;;;;;;;2.40;1.98;;;;;;;;;;5014903;28;20594;-58
2023/04/27 13:36:15;;;;;;;3.42;2.15;;;;;;;;;;5014165;28;20496;-57
2023/04/27 13:38:41;;;;;;;5.03;2.33;;;;;;;;;;5015401;28;20053;-58
2023/04/27 13:41:08;;;;;;;3.55;2.15;;;;;;;;;;5013312;28;20476;-58
2023/04/27 13:43:34;;;;;;;3.30;2.20;;;;;;;;;;5015029;28;20354;-58
2023/04/27 13:46:01;;;;;;;2.50;1.73;;;;;;;;;;5007988;28;20125;-58
2023/04/27 13:48:27;;;;;;;3.30;1.90;;;;;;;;;;5008167;28;20138;-58
2023/04/27 13:50:54;;;;;;;3.63;2.08;;;;;;;;;;5013458;28;20851;-58
2023/04/27 13:53:24;;;;;;;3.47;1.80;;;;;;;;;;5014169;28;20785;-58
2023/04/27 13:55:50;;;;;;;6.18;2.42;;;;;;;;;;5014797;28;20046;-58
2023/04/27 13:58:16;;;;;;;2.53;1.80;;;;;;;;;;5013628;28;20724;-58
2023/04/27 14:00:42;;;;;;;2.88;1.70;;;;;;;;;;5014741;28;20478;-58
2023/04/27 14:03:08;;;;;;;2.55;1.75;;;;;;;;;;5013493;28;20119;-58
2023/04/27 14:05:34;;;;;;;2.55;1.50;;;;;;;;;;5013827;28;20038;-58
2023/04/27 14:08:00;;;;;;;1.85;1.40;;;;;;;;;;5013982;28;20124;-58
2023/04/27 14:10:26;;;;;;;5.60;1.83;;;;;;;;;;5014124;28;20126;-58
2023/04/27 14:12:52;;;;;;;4.32;1.42;;;;;;;;;;5013100;28;20050;-58
2023/04/27 14:15:18;;;;;;;4.22;1.70;;;;;;;;;;5006498;28;20524;-58
2023/04/27 14:17:45;;;;;;;1.80;1.42;;;;;;;;;;5012605;28;20129;-58
2023/04/27 14:20:11;;;;;;;3.22;1.80;;;;;;;;;;5015107;28;20050;-58
2023/04/27 14:22:37;;;;;;;3.20;1.88;;;;;;;;;;5014101;28;20460;-58
2023/04/27 14:25:03;;;;;;;3.05;1.75;;;;;;;;;;5013639;28;20078;-58
2023/04/27 14:27:29;;;;;;;4.22;1.55;;;;;;;;;;5014024;28;20046;-57
2023/04/27 14:29:55;;;;;;;4.05;1.50;;;;;;;;;;5014221;28;20090;-58
2023/04/27 14:32:22;;;;;;;2.30;1.48;;;;;;;;;;5013533;28;20042;-58
2023/04/27 14:34:48;;;;;;;2.72;1.65;;;;;;;;;;5014806;28;20484;-58
2023/04/27 14:37:14;;;;;;;2.75;1.50;;;;;;;;;;5028306;28;20050;-58
2023/04/27 14:39:40;;;;;;;2.75;1.85;;;;;;;;;;5012537;28;20502;-58